sensor_id;sensor_type;location;lat;lon;timestamp;P1;durP1;ratioP1;P2;durP2;ratioP2
36817;SDS011;22761;51.542;16.450;2023-03-01T00:01:41;38.40;;;19.80;;
36817;SDS011;22761;51.542;16.450;2023-03-01T00:04:10;41.60;;;20.70;;
36817;SDS011;22761;51.542;16.450;2023-03-01T00:06:38;42.60;;;21.80;;
36817;SDS011;22761;51.542;16.450;2023-03-01T00:09:06;41.80;;;22.10;;
36817;SDS011;22761;51.542;16.450;2023-03-01T00:11:34;43.50;;;21.80;;
36817;SDS011;22761;51.542;16.450;2023-03-01T00:14:03;43.70;;;21.20;;
36817;SDS011;22761;51.542;16.450;2023-03-01T00:16:38;45.90;;;22.10;;
36817;SDS011;22761;51.542;16.450;2023-03-01T00:19:08;43.70;;;21.50;;
36817;SDS011;22761;51.542;16.450;2023-03-01T00:21:40;41.60;;;21.00;;
36817;SDS011;22761;51.542;16.450;2023-03-01T00:24:09;41.90;;;20.40;;
36817;SDS011;22761;51.542;16.450;2023-03-01T00:26:39;41.20;;;21.70;;
36817;SDS011;22761;51.542;16.450;2023-03-01T00:29:07;38.00;;;20.20;;
36817;SDS011;22761;51.542;16.450;2023-03-01T00:31:36;37.80;;;19.60;;
36817;SDS011;22761;51.542;16.450;2023-03-01T00:34:05;34.40;;;19.20;;
36817;SDS011;22761;51.542;16.450;2023-03-01T00:36:35;41.00;;;19.70;;
36817;SDS011;22761;51.542;16.450;2023-03-01T00:39:05;36.80;;;19.70;;
36817;SDS011;22761;51.542;16.450;2023-03-01T00:41:37;38.40;;;18.70;;
36817;SDS011;22761;51.542;16.450;2023-03-01T00:44:06;28.80;;;17.70;;
36817;SDS011;22761;51.542;16.450;2023-03-01T00:46:36;31.50;;;18.10;;
36817;SDS011;22761;51.542;16.450;2023-03-01T00:49:04;35.30;;;19.20;;
36817;SDS011;22761;51.542;16.450;2023-03-01T00:51:33;31.20;;;18.20;;
36817;SDS011;22761;51.542;16.450;2023-03-01T00:54:01;41.90;;;20.30;;
36817;SDS011;22761;51.542;16.450;2023-03-01T00:56:30;42.70;;;21.30;;
36817;SDS011;22761;51.542;16.450;2023-03-01T00:59:00;41.50;;;21.40;;
36817;SDS011;22761;51.542;16.450;2023-03-01T01:01:29;45.40;;;22.50;;
36817;SDS011;22761;51.542;16.450;2023-03-01T01:04:02;46.70;;;21.80;;
36817;SDS011;22761;51.542;16.450;2023-03-01T01:06:33;45.40;;;22.00;;
36817;SDS011;22761;51.542;16.450;2023-03-01T01:09:04;42.60;;;21.70;;
36817;SDS011;22761;51.542;16.450;2023-03-01T01:11:34;43.20;;;22.20;;
36817;SDS011;22761;51.542;16.450;2023-03-01T01:14:04;40.70;;;20.20;;
36817;SDS011;22761;51.542;16.450;2023-03-01T01:16:32;42.40;;;20.10;;
36817;SDS011;22761;51.542;16.450;2023-03-01T01:19:02;35.40;;;19.70;;
36817;SDS011;22761;51.542;16.450;2023-03-01T01:21:30;42.70;;;20.10;;
36817;SDS011;22761;51.542;16.450;2023-03-01T01:23:59;43.30;;;20.70;;
36817;SDS011;22761;51.542;16.450;2023-03-01T01:26:28;37.10;;;18.90;;
36817;SDS011;22761;51.542;16.450;2023-03-01T01:28:58;35.40;;;17.70;;
36817;SDS011;22761;51.542;16.450;2023-03-01T01:31:27;34.00;;;17.40;;
36817;SDS011;22761;51.542;16.450;2023-03-01T01:33:57;30.00;;;17.30;;
36817;SDS011;22761;51.542;16.450;2023-03-01T01:36:26;35.30;;;19.80;;
36817;SDS011;22761;51.542;16.450;2023-03-01T01:38:56;39.30;;;19.80;;
36817;SDS011;22761;51.542;16.450;2023-03-01T01:41:25;45.50;;;20.90;;
36817;SDS011;22761;51.542;16.450;2023-03-01T01:44:11;39.30;;;21.00;;
36817;SDS011;22761;51.542;16.450;2023-03-01T01:46:44;35.80;;;19.50;;
36817;SDS011;22761;51.542;16.450;2023-03-01T01:52:05;43.30;;;20.00;;
36817;SDS011;22761;51.542;16.450;2023-03-01T01:55:37;39.90;;;20.30;;
36817;SDS011;22761;51.542;16.450;2023-03-01T01:57:46;51.40;;;25.20;;
36817;SDS011;22761;51.542;16.450;2023-03-01T02:00:27;37.70;;;19.40;;
36817;SDS011;22761;51.542;16.450;2023-03-01T02:03:03;41.30;;;19.40;;
36817;SDS011;22761;51.542;16.450;2023-03-01T02:08:23;43.00;;;21.90;;
36817;SDS011;22761;51.542;16.450;2023-03-01T02:10:54;35.80;;;20.00;;
36817;SDS011;22761;51.542;16.450;2023-03-01T02:13:23;36.10;;;19.10;;
36817;SDS011;22761;51.542;16.450;2023-03-01T02:15:51;33.50;;;17.70;;
36817;SDS011;22761;51.542;16.450;2023-03-01T02:18:20;38.00;;;19.10;;
36817;SDS011;22761;51.542;16.450;2023-03-01T02:20:56;36.60;;;18.40;;
36817;SDS011;22761;51.542;16.450;2023-03-01T02:23:29;36.30;;;20.00;;
36817;SDS011;22761;51.542;16.450;2023-03-01T02:28:42;42.20;;;21.60;;
36817;SDS011;22761;51.542;16.450;2023-03-01T02:31:14;42.00;;;21.80;;
36817;SDS011;22761;51.542;16.450;2023-03-01T02:36:35;41.70;;;21.40;;
36817;SDS011;22761;51.542;16.450;2023-03-01T02:39:05;41.90;;;21.60;;
36817;SDS011;22761;51.542;16.450;2023-03-01T02:41:35;47.60;;;22.70;;
36817;SDS011;22761;51.542;16.450;2023-03-01T02:44:05;78.90;;;28.30;;
36817;SDS011;22761;51.542;16.450;2023-03-01T02:46:41;87.00;;;32.20;;
36817;SDS011;22761;51.542;16.450;2023-03-01T02:49:18;83.20;;;30.30;;
36817;SDS011;22761;51.542;16.450;2023-03-01T02:55:12;81.90;;;29.90;;
36817;SDS011;22761;51.542;16.450;2023-03-01T02:57:43;82.40;;;30.70;;
36817;SDS011;22761;51.542;16.450;2023-03-01T03:02:51;64.40;;;27.00;;
36817;SDS011;22761;51.542;16.450;2023-03-01T03:05:24;55.70;;;26.70;;
36817;SDS011;22761;51.542;16.450;2023-03-01T03:07:56;51.30;;;24.70;;
36817;SDS011;22761;51.542;16.450;2023-03-01T03:10:31;47.00;;;22.00;;
36817;SDS011;22761;51.542;16.450;2023-03-01T03:13:03;47.00;;;23.50;;
36817;SDS011;22761;51.542;16.450;2023-03-01T03:15:35;50.10;;;24.90;;
36817;SDS011;22761;51.542;16.450;2023-03-01T03:18:06;46.80;;;25.00;;
36817;SDS011;22761;51.542;16.450;2023-03-01T03:20:36;49.40;;;25.70;;
36817;SDS011;22761;51.542;16.450;2023-03-01T03:23:05;44.50;;;24.10;;
36817;SDS011;22761;51.542;16.450;2023-03-01T03:25:34;48.90;;;24.20;;
36817;SDS011;22761;51.542;16.450;2023-03-01T03:28:06;46.70;;;22.90;;
36817;SDS011;22761;51.542;16.450;2023-03-01T03:30:39;47.20;;;23.00;;
36817;SDS011;22761;51.542;16.450;2023-03-01T03:33:09;48.30;;;22.50;;
36817;SDS011;22761;51.542;16.450;2023-03-01T03:35:41;46.40;;;23.70;;
36817;SDS011;22761;51.542;16.450;2023-03-01T03:38:13;51.80;;;22.90;;
36817;SDS011;22761;51.542;16.450;2023-03-01T03:40:46;45.40;;;22.50;;
36817;SDS011;22761;51.542;16.450;2023-03-01T03:43:21;43.70;;;22.20;;
36817;SDS011;22761;51.542;16.450;2023-03-01T03:45:50;39.80;;;21.20;;
36817;SDS011;22761;51.542;16.450;2023-03-01T03:48:19;39.50;;;20.90;;
36817;SDS011;22761;51.542;16.450;2023-03-01T03:50:49;36.90;;;19.40;;
36817;SDS011;22761;51.542;16.450;2023-03-01T03:53:19;38.30;;;19.50;;
36817;SDS011;22761;51.542;16.450;2023-03-01T03:55:48;47.00;;;21.10;;
36817;SDS011;22761;51.542;16.450;2023-03-01T03:58:20;39.00;;;19.70;;
36817;SDS011;22761;51.542;16.450;2023-03-01T04:00:51;42.50;;;21.00;;
36817;SDS011;22761;51.542;16.450;2023-03-01T04:03:20;40.80;;;20.50;;
36817;SDS011;22761;51.542;16.450;2023-03-01T04:05:49;41.40;;;21.40;;
36817;SDS011;22761;51.542;16.450;2023-03-01T04:08:22;37.30;;;20.10;;
36817;SDS011;22761;51.542;16.450;2023-03-01T04:10:52;38.30;;;19.80;;
36817;SDS011;22761;51.542;16.450;2023-03-01T04:13:24;39.20;;;19.90;;
36817;SDS011;22761;51.542;16.450;2023-03-01T04:15:53;46.20;;;21.20;;
36817;SDS011;22761;51.542;16.450;2023-03-01T04:18:22;41.70;;;20.30;;
36817;SDS011;22761;51.542;16.450;2023-03-01T04:20:53;41.10;;;21.00;;
36817;SDS011;22761;51.542;16.450;2023-03-01T04:23:23;36.90;;;20.30;;
36817;SDS011;22761;51.542;16.450;2023-03-01T04:25:53;40.90;;;21.30;;
36817;SDS011;22761;51.542;16.450;2023-03-01T04:28:31;40.60;;;20.70;;
36817;SDS011;22761;51.542;16.450;2023-03-01T04:33:47;36.20;;;18.30;;
36817;SDS011;22761;51.542;16.450;2023-03-01T04:36:20;32.70;;;18.10;;
36817;SDS011;22761;51.542;16.450;2023-03-01T04:38:50;41.40;;;20.70;;
36817;SDS011;22761;51.542;16.450;2023-03-01T04:41:21;36.30;;;20.30;;
36817;SDS011;22761;51.542;16.450;2023-03-01T04:43:51;41.20;;;21.10;;
36817;SDS011;22761;51.542;16.450;2023-03-01T04:46:20;38.00;;;18.70;;
36817;SDS011;22761;51.542;16.450;2023-03-01T04:48:49;40.90;;;18.80;;
36817;SDS011;22761;51.542;16.450;2023-03-01T04:51:17;35.60;;;18.00;;
36817;SDS011;22761;51.542;16.450;2023-03-01T04:53:46;31.10;;;17.10;;
36817;SDS011;22761;51.542;16.450;2023-03-01T04:56:15;36.40;;;20.10;;
36817;SDS011;22761;51.542;16.450;2023-03-01T04:58:45;38.60;;;19.70;;
36817;SDS011;22761;51.542;16.450;2023-03-01T05:01:18;38.20;;;19.20;;
36817;SDS011;22761;51.542;16.450;2023-03-01T05:03:48;39.60;;;20.30;;
36817;SDS011;22761;51.542;16.450;2023-03-01T05:08:47;41.10;;;20.00;;
36817;SDS011;22761;51.542;16.450;2023-03-01T05:11:15;40.60;;;21.70;;
36817;SDS011;22761;51.542;16.450;2023-03-01T05:13:43;42.30;;;21.30;;
36817;SDS011;22761;51.542;16.450;2023-03-01T05:16:12;44.20;;;22.40;;
36817;SDS011;22761;51.542;16.450;2023-03-01T05:18:40;43.60;;;22.20;;
36817;SDS011;22761;51.542;16.450;2023-03-01T05:21:10;41.50;;;23.00;;
36817;SDS011;22761;51.542;16.450;2023-03-01T05:23:39;43.00;;;21.50;;
36817;SDS011;22761;51.542;16.450;2023-03-01T05:26:08;48.10;;;25.70;;
36817;SDS011;22761;51.542;16.450;2023-03-01T05:28:54;47.60;;;25.10;;
36817;SDS011;22761;51.542;16.450;2023-03-01T05:31:27;46.50;;;24.00;;
36817;SDS011;22761;51.542;16.450;2023-03-01T05:33:56;38.80;;;21.70;;
36817;SDS011;22761;51.542;16.450;2023-03-01T05:36:24;45.40;;;22.50;;
36817;SDS011;22761;51.542;16.450;2023-03-01T05:38:52;41.90;;;23.30;;
36817;SDS011;22761;51.542;16.450;2023-03-01T05:41:20;47.10;;;25.10;;
36817;SDS011;22761;51.542;16.450;2023-03-01T05:43:48;50.60;;;24.50;;
36817;SDS011;22761;51.542;16.450;2023-03-01T05:46:17;47.50;;;24.60;;
36817;SDS011;22761;51.542;16.450;2023-03-01T05:48:45;45.00;;;24.30;;
36817;SDS011;22761;51.542;16.450;2023-03-01T05:51:14;46.90;;;25.20;;
36817;SDS011;22761;51.542;16.450;2023-03-01T05:53:43;48.30;;;25.50;;
36817;SDS011;22761;51.542;16.450;2023-03-01T05:56:11;51.40;;;25.50;;
36817;SDS011;22761;51.542;16.450;2023-03-01T05:58:39;51.60;;;25.70;;
36817;SDS011;22761;51.542;16.450;2023-03-01T06:01:10;86.80;;;33.90;;
36817;SDS011;22761;51.542;16.450;2023-03-01T06:03:40;75.00;;;34.20;;
36817;SDS011;22761;51.542;16.450;2023-03-01T06:06:08;76.40;;;36.40;;
36817;SDS011;22761;51.542;16.450;2023-03-01T06:08:37;60.40;;;30.00;;
36817;SDS011;22761;51.542;16.450;2023-03-01T06:11:05;93.40;;;43.90;;
36817;SDS011;22761;51.542;16.450;2023-03-01T06:13:34;77.20;;;36.40;;
36817;SDS011;22761;51.542;16.450;2023-03-01T06:16:04;72.60;;;34.40;;
36817;SDS011;22761;51.542;16.450;2023-03-01T06:18:34;84.40;;;40.90;;
36817;SDS011;22761;51.542;16.450;2023-03-01T06:21:02;78.40;;;37.80;;
36817;SDS011;22761;51.542;16.450;2023-03-01T06:23:31;72.60;;;36.60;;
36817;SDS011;22761;51.542;16.450;2023-03-01T06:26:00;66.50;;;32.90;;
36817;SDS011;22761;51.542;16.450;2023-03-01T06:28:28;65.20;;;31.30;;
36817;SDS011;22761;51.542;16.450;2023-03-01T06:30:56;66.10;;;31.90;;
36817;SDS011;22761;51.542;16.450;2023-03-01T06:33:25;65.00;;;31.80;;
36817;SDS011;22761;51.542;16.450;2023-03-01T06:35:56;63.60;;;33.30;;
36817;SDS011;22761;51.542;16.450;2023-03-01T06:38:24;73.10;;;36.90;;
36817;SDS011;22761;51.542;16.450;2023-03-01T06:40:53;71.90;;;36.60;;
36817;SDS011;22761;51.542;16.450;2023-03-01T06:43:23;75.80;;;38.20;;
36817;SDS011;22761;51.542;16.450;2023-03-01T06:45:51;68.30;;;32.00;;
36817;SDS011;22761;51.542;16.450;2023-03-01T06:48:20;59.50;;;28.60;;
36817;SDS011;22761;51.542;16.450;2023-03-01T06:50:48;53.10;;;26.80;;
36817;SDS011;22761;51.542;16.450;2023-03-01T06:53:16;56.90;;;28.40;;
36817;SDS011;22761;51.542;16.450;2023-03-01T06:55:44;57.30;;;27.50;;
36817;SDS011;22761;51.542;16.450;2023-03-01T06:58:13;58.80;;;28.70;;
36817;SDS011;22761;51.542;16.450;2023-03-01T07:00:41;51.60;;;26.30;;
36817;SDS011;22761;51.542;16.450;2023-03-01T07:03:10;53.40;;;28.40;;
36817;SDS011;22761;51.542;16.450;2023-03-01T07:05:39;52.70;;;26.20;;
36817;SDS011;22761;51.542;16.450;2023-03-01T07:08:08;49.40;;;25.50;;
36817;SDS011;22761;51.542;16.450;2023-03-01T07:10:36;51.30;;;26.90;;
36817;SDS011;22761;51.542;16.450;2023-03-01T07:13:04;52.10;;;27.50;;
36817;SDS011;22761;51.542;16.450;2023-03-01T07:15:34;57.70;;;28.70;;
36817;SDS011;22761;51.542;16.450;2023-03-01T07:18:02;74.30;;;36.70;;
36817;SDS011;22761;51.542;16.450;2023-03-01T07:20:30;66.20;;;32.10;;
36817;SDS011;22761;51.542;16.450;2023-03-01T07:22:59;57.40;;;29.10;;
36817;SDS011;22761;51.542;16.450;2023-03-01T07:25:27;58.10;;;30.60;;
36817;SDS011;22761;51.542;16.450;2023-03-01T07:27:55;57.80;;;28.50;;
36817;SDS011;22761;51.542;16.450;2023-03-01T07:30:24;65.90;;;30.50;;
36817;SDS011;22761;51.542;16.450;2023-03-01T07:32:55;59.30;;;29.20;;
36817;SDS011;22761;51.542;16.450;2023-03-01T07:35:25;58.80;;;30.60;;
36817;SDS011;22761;51.542;16.450;2023-03-01T07:37:55;49.80;;;25.20;;
36817;SDS011;22761;51.542;16.450;2023-03-01T07:40:23;54.90;;;29.50;;
36817;SDS011;22761;51.542;16.450;2023-03-01T07:42:57;57.40;;;31.00;;
36817;SDS011;22761;51.542;16.450;2023-03-01T07:45:26;51.50;;;28.20;;
36817;SDS011;22761;51.542;16.450;2023-03-01T07:47:55;54.50;;;29.10;;
36817;SDS011;22761;51.542;16.450;2023-03-01T07:50:23;52.20;;;27.20;;
36817;SDS011;22761;51.542;16.450;2023-03-01T07:52:52;58.80;;;29.10;;
36817;SDS011;22761;51.542;16.450;2023-03-01T07:55:20;59.80;;;30.10;;
36817;SDS011;22761;51.542;16.450;2023-03-01T07:57:48;65.80;;;31.20;;
36817;SDS011;22761;51.542;16.450;2023-03-01T08:00:17;58.70;;;31.30;;
36817;SDS011;22761;51.542;16.450;2023-03-01T08:02:45;63.80;;;32.50;;
36817;SDS011;22761;51.542;16.450;2023-03-01T08:05:14;62.10;;;33.10;;
36817;SDS011;22761;51.542;16.450;2023-03-01T08:07:42;60.90;;;34.10;;
36817;SDS011;22761;51.542;16.450;2023-03-01T08:10:10;67.60;;;34.50;;
36817;SDS011;22761;51.542;16.450;2023-03-01T08:12:39;66.50;;;34.40;;
36817;SDS011;22761;51.542;16.450;2023-03-01T08:15:07;75.30;;;37.20;;
36817;SDS011;22761;51.542;16.450;2023-03-01T08:17:36;72.30;;;33.70;;
36817;SDS011;22761;51.542;16.450;2023-03-01T08:20:05;67.10;;;34.80;;
36817;SDS011;22761;51.542;16.450;2023-03-01T08:22:34;69.90;;;37.90;;
36817;SDS011;22761;51.542;16.450;2023-03-01T08:25:03;67.30;;;32.80;;
36817;SDS011;22761;51.542;16.450;2023-03-01T08:27:31;69.70;;;35.20;;
36817;SDS011;22761;51.542;16.450;2023-03-01T08:30:00;62.50;;;31.00;;
36817;SDS011;22761;51.542;16.450;2023-03-01T08:32:28;60.30;;;30.10;;
36817;SDS011;22761;51.542;16.450;2023-03-01T08:34:56;61.80;;;30.40;;
36817;SDS011;22761;51.542;16.450;2023-03-01T08:37:25;42.70;;;24.70;;
36817;SDS011;22761;51.542;16.450;2023-03-01T08:39:53;38.80;;;22.60;;
36817;SDS011;22761;51.542;16.450;2023-03-01T08:42:22;42.90;;;23.40;;
36817;SDS011;22761;51.542;16.450;2023-03-01T08:44:51;45.20;;;25.50;;
36817;SDS011;22761;51.542;16.450;2023-03-01T08:47:19;50.20;;;28.70;;
36817;SDS011;22761;51.542;16.450;2023-03-01T08:49:48;46.50;;;26.20;;
36817;SDS011;22761;51.542;16.450;2023-03-01T08:52:17;64.60;;;31.10;;
36817;SDS011;22761;51.542;16.450;2023-03-01T08:54:47;84.50;;;38.60;;
36817;SDS011;22761;51.542;16.450;2023-03-01T08:57:15;61.80;;;30.00;;
36817;SDS011;22761;51.542;16.450;2023-03-01T08:59:43;44.60;;;24.70;;
36817;SDS011;22761;51.542;16.450;2023-03-01T09:02:13;36.60;;;22.20;;
36817;SDS011;22761;51.542;16.450;2023-03-01T09:04:43;33.10;;;20.90;;
36817;SDS011;22761;51.542;16.450;2023-03-01T09:07:12;33.50;;;21.30;;
36817;SDS011;22761;51.542;16.450;2023-03-01T09:09:40;32.30;;;21.70;;
36817;SDS011;22761;51.542;16.450;2023-03-01T09:12:09;33.60;;;21.30;;
36817;SDS011;22761;51.542;16.450;2023-03-01T09:14:37;31.20;;;19.50;;
36817;SDS011;22761;51.542;16.450;2023-03-01T09:17:06;29.70;;;18.50;;
36817;SDS011;22761;51.542;16.450;2023-03-01T09:19:34;26.60;;;18.00;;
36817;SDS011;22761;51.542;16.450;2023-03-01T09:22:03;30.00;;;18.90;;
36817;SDS011;22761;51.542;16.450;2023-03-01T09:24:32;33.10;;;20.40;;
36817;SDS011;22761;51.542;16.450;2023-03-01T09:27:00;31.10;;;19.80;;
36817;SDS011;22761;51.542;16.450;2023-03-01T09:29:29;29.60;;;19.70;;
36817;SDS011;22761;51.542;16.450;2023-03-01T09:31:57;29.40;;;19.60;;
36817;SDS011;22761;51.542;16.450;2023-03-01T09:34:26;29.90;;;18.80;;
36817;SDS011;22761;51.542;16.450;2023-03-01T09:36:54;27.60;;;17.60;;
36817;SDS011;22761;51.542;16.450;2023-03-01T09:39:22;27.20;;;18.80;;
36817;SDS011;22761;51.542;16.450;2023-03-01T09:42:03;25.10;;;17.00;;
36817;SDS011;22761;51.542;16.450;2023-03-01T09:47:11;23.70;;;15.40;;
36817;SDS011;22761;51.542;16.450;2023-03-01T09:49:45;27.10;;;17.90;;
36817;SDS011;22761;51.542;16.450;2023-03-01T09:52:25;27.10;;;16.70;;
36817;SDS011;22761;51.542;16.450;2023-03-01T09:54:55;26.20;;;17.00;;
36817;SDS011;22761;51.542;16.450;2023-03-01T09:57:39;39.20;;;22.90;;
36817;SDS011;22761;51.542;16.450;2023-03-01T10:03:01;25.50;;;17.50;;
36817;SDS011;22761;51.542;16.450;2023-03-01T10:05:41;26.00;;;17.30;;
36817;SDS011;22761;51.542;16.450;2023-03-01T10:08:36;29.70;;;18.70;;
36817;SDS011;22761;51.542;16.450;2023-03-01T10:11:44;26.10;;;16.70;;
36817;SDS011;22761;51.542;16.450;2023-03-01T10:16:55;28.40;;;17.10;;
36817;SDS011;22761;51.542;16.450;2023-03-01T10:22:07;23.30;;;16.20;;
36817;SDS011;22761;51.542;16.450;2023-03-01T10:24:42;24.70;;;16.70;;
36817;SDS011;22761;51.542;16.450;2023-03-01T10:32:39;24.30;;;16.90;;
36817;SDS011;22761;51.542;16.450;2023-03-01T10:37:57;27.00;;;17.90;;
36817;SDS011;22761;51.542;16.450;2023-03-01T10:40:26;25.10;;;17.30;;
36817;SDS011;22761;51.542;16.450;2023-03-01T10:42:57;24.60;;;17.60;;
36817;SDS011;22761;51.542;16.450;2023-03-01T10:48:16;23.20;;;17.40;;
36817;SDS011;22761;51.542;16.450;2023-03-01T10:50:48;26.20;;;18.40;;
36817;SDS011;22761;51.542;16.450;2023-03-01T10:53:22;23.10;;;16.30;;
36817;SDS011;22761;51.542;16.450;2023-03-01T10:56:10;23.90;;;17.10;;
36817;SDS011;22761;51.542;16.450;2023-03-01T11:01:34;59.80;;;36.20;;
36817;SDS011;22761;51.542;16.450;2023-03-01T11:06:35;25.80;;;18.00;;
36817;SDS011;22761;51.542;16.450;2023-03-01T11:09:15;29.10;;;20.40;;
36817;SDS011;22761;51.542;16.450;2023-03-01T11:11:55;26.30;;;18.70;;
36817;SDS011;22761;51.542;16.450;2023-03-01T11:14:25;24.20;;;17.10;;
36817;SDS011;22761;51.542;16.450;2023-03-01T11:16:59;26.40;;;18.80;;
36817;SDS011;22761;51.542;16.450;2023-03-01T11:19:28;31.20;;;19.50;;
36817;SDS011;22761;51.542;16.450;2023-03-01T11:22:02;23.20;;;18.80;;
36817;SDS011;22761;51.542;16.450;2023-03-01T11:24:49;20.70;;;16.30;;
36817;SDS011;22761;51.542;16.450;2023-03-01T11:27:38;25.20;;;18.70;;
36817;SDS011;22761;51.542;16.450;2023-03-01T11:35:37;30.00;;;21.20;;
36817;SDS011;22761;51.542;16.450;2023-03-01T11:38:26;37.80;;;25.00;;
36817;SDS011;22761;51.542;16.450;2023-03-01T11:49:07;22.00;;;17.40;;
36817;SDS011;22761;51.542;16.450;2023-03-01T11:57:10;24.60;;;18.60;;
36817;SDS011;22761;51.542;16.450;2023-03-01T12:00:25;23.40;;;18.60;;
36817;SDS011;22761;51.542;16.450;2023-03-01T12:03:17;21.90;;;16.90;;
36817;SDS011;22761;51.542;16.450;2023-03-01T12:08:35;20.50;;;15.00;;
36817;SDS011;22761;51.542;16.450;2023-03-01T12:11:23;21.90;;;15.90;;
36817;SDS011;22761;51.542;16.450;2023-03-01T12:16:37;20.80;;;15.50;;
36817;SDS011;22761;51.542;16.450;2023-03-01T12:19:28;18.80;;;14.50;;
36817;SDS011;22761;51.542;16.450;2023-03-01T12:36:24;40.50;;;23.20;;
36817;SDS011;22761;51.542;16.450;2023-03-01T12:47:50;31.70;;;22.10;;
36817;SDS011;22761;51.542;16.450;2023-03-01T12:50:24;29.40;;;22.10;;
36817;SDS011;22761;51.542;16.450;2023-03-01T12:52:56;18.90;;;15.70;;
36817;SDS011;22761;51.542;16.450;2023-03-01T12:55:41;21.50;;;16.70;;
36817;SDS011;22761;51.542;16.450;2023-03-01T13:20:23;19.70;;;15.30;;
36817;SDS011;22761;51.542;16.450;2023-03-01T13:23:07;18.90;;;13.50;;
36817;SDS011;22761;51.542;16.450;2023-03-01T13:39:00;18.70;;;13.50;;
36817;SDS011;22761;51.542;16.450;2023-03-01T13:47:14;19.40;;;13.80;;
36817;SDS011;22761;51.542;16.450;2023-03-01T13:49:53;18.50;;;13.70;;
36817;SDS011;22761;51.542;16.450;2023-03-01T13:52:33;18.60;;;13.80;;
36817;SDS011;22761;51.542;16.450;2023-03-01T13:57:42;18.50;;;13.80;;
36817;SDS011;22761;51.542;16.450;2023-03-01T14:05:36;18.60;;;13.80;;
36817;SDS011;22761;51.542;16.450;2023-03-01T14:08:05;17.60;;;14.50;;
36817;SDS011;22761;51.542;16.450;2023-03-01T14:10:53;16.30;;;12.30;;
36817;SDS011;22761;51.542;16.450;2023-03-01T14:16:20;16.80;;;13.40;;
36817;SDS011;22761;51.542;16.450;2023-03-01T14:24:44;16.60;;;12.70;;
36817;SDS011;22761;51.542;16.450;2023-03-01T14:27:17;16.80;;;12.10;;
36817;SDS011;22761;51.542;16.450;2023-03-01T14:29:56;16.70;;;12.30;;
36817;SDS011;22761;51.542;16.450;2023-03-01T14:32:29;16.90;;;12.20;;
36817;SDS011;22761;51.542;16.450;2023-03-01T14:34:59;16.30;;;12.60;;
36817;SDS011;22761;51.542;16.450;2023-03-01T14:37:30;17.20;;;12.50;;
36817;SDS011;22761;51.542;16.450;2023-03-01T14:40:03;18.30;;;12.80;;
36817;SDS011;22761;51.542;16.450;2023-03-01T14:42:34;15.70;;;12.50;;
36817;SDS011;22761;51.542;16.450;2023-03-01T14:45:03;17.70;;;12.10;;
36817;SDS011;22761;51.542;16.450;2023-03-01T14:47:33;15.00;;;11.70;;
36817;SDS011;22761;51.542;16.450;2023-03-01T14:50:15;15.50;;;11.90;;
36817;SDS011;22761;51.542;16.450;2023-03-01T14:52:46;16.00;;;12.40;;
36817;SDS011;22761;51.542;16.450;2023-03-01T14:57:50;16.00;;;11.70;;
36817;SDS011;22761;51.542;16.450;2023-03-01T15:00:20;19.10;;;11.80;;
36817;SDS011;22761;51.542;16.450;2023-03-01T15:02:51;16.10;;;12.40;;
36817;SDS011;22761;51.542;16.450;2023-03-01T15:05:39;19.00;;;13.20;;
36817;SDS011;22761;51.542;16.450;2023-03-01T15:08:12;19.00;;;12.50;;
36817;SDS011;22761;51.542;16.450;2023-03-01T15:11:02;17.00;;;12.20;;
36817;SDS011;22761;51.542;16.450;2023-03-01T15:13:35;20.00;;;15.20;;
36817;SDS011;22761;51.542;16.450;2023-03-01T15:16:26;23.60;;;15.70;;
36817;SDS011;22761;51.542;16.450;2023-03-01T15:19:04;24.90;;;18.10;;
36817;SDS011;22761;51.542;16.450;2023-03-01T15:21:35;19.90;;;15.30;;
36817;SDS011;22761;51.542;16.450;2023-03-01T15:24:06;18.90;;;13.30;;
36817;SDS011;22761;51.542;16.450;2023-03-01T15:26:58;19.40;;;14.00;;
36817;SDS011;22761;51.542;16.450;2023-03-01T15:29:34;21.60;;;15.30;;
36817;SDS011;22761;51.542;16.450;2023-03-01T15:34:58;21.30;;;15.20;;
36817;SDS011;22761;51.542;16.450;2023-03-01T15:43:14;57.50;;;30.90;;
36817;SDS011;22761;51.542;16.450;2023-03-01T15:48:59;47.20;;;30.00;;
36817;SDS011;22761;51.542;16.450;2023-03-01T15:51:35;34.20;;;24.90;;
36817;SDS011;22761;51.542;16.450;2023-03-01T15:54:06;91.90;;;42.30;;
36817;SDS011;22761;51.542;16.450;2023-03-01T15:56:38;30.10;;;17.50;;
36817;SDS011;22761;51.542;16.450;2023-03-01T15:59:09;39.10;;;19.50;;
36817;SDS011;22761;51.542;16.450;2023-03-01T16:01:40;44.20;;;21.20;;
36817;SDS011;22761;51.542;16.450;2023-03-01T16:04:12;24.20;;;14.80;;
36817;SDS011;22761;51.542;16.450;2023-03-01T16:06:52;20.60;;;13.20;;
36817;SDS011;22761;51.542;16.450;2023-03-01T16:09:24;23.10;;;14.30;;
36817;SDS011;22761;51.542;16.450;2023-03-01T16:11:53;23.20;;;14.90;;
36817;SDS011;22761;51.542;16.450;2023-03-01T16:14:22;22.90;;;14.70;;
36817;SDS011;22761;51.542;16.450;2023-03-01T16:16:50;27.10;;;15.90;;
36817;SDS011;22761;51.542;16.450;2023-03-01T16:19:18;26.10;;;16.30;;
36817;SDS011;22761;51.542;16.450;2023-03-01T16:21:47;30.20;;;17.50;;
36817;SDS011;22761;51.542;16.450;2023-03-01T16:24:16;27.60;;;16.10;;
36817;SDS011;22761;51.542;16.450;2023-03-01T16:26:45;28.20;;;16.00;;
36817;SDS011;22761;51.542;16.450;2023-03-01T16:29:13;26.10;;;15.30;;
36817;SDS011;22761;51.542;16.450;2023-03-01T16:31:42;22.10;;;12.70;;
36817;SDS011;22761;51.542;16.450;2023-03-01T16:34:11;20.90;;;11.50;;
36817;SDS011;22761;51.542;16.450;2023-03-01T16:36:39;18.90;;;11.30;;
36817;SDS011;22761;51.542;16.450;2023-03-01T16:39:09;22.40;;;12.90;;
36817;SDS011;22761;51.542;16.450;2023-03-01T16:41:37;20.20;;;12.20;;
36817;SDS011;22761;51.542;16.450;2023-03-01T16:44:05;24.90;;;13.90;;
36817;SDS011;22761;51.542;16.450;2023-03-01T16:46:33;22.10;;;12.60;;
36817;SDS011;22761;51.542;16.450;2023-03-01T16:49:01;20.80;;;11.80;;
36817;SDS011;22761;51.542;16.450;2023-03-01T16:51:30;22.10;;;12.00;;
36817;SDS011;22761;51.542;16.450;2023-03-01T16:54:00;20.50;;;11.00;;
36817;SDS011;22761;51.542;16.450;2023-03-01T16:56:29;18.80;;;11.10;;
36817;SDS011;22761;51.542;16.450;2023-03-01T16:59:00;20.90;;;11.90;;
36817;SDS011;22761;51.542;16.450;2023-03-01T17:01:32;23.60;;;13.70;;
36817;SDS011;22761;51.542;16.450;2023-03-01T17:04:03;25.60;;;14.40;;
36817;SDS011;22761;51.542;16.450;2023-03-01T17:06:31;26.70;;;14.40;;
36817;SDS011;22761;51.542;16.450;2023-03-01T17:09:00;28.90;;;15.30;;
36817;SDS011;22761;51.542;16.450;2023-03-01T17:11:28;32.70;;;15.60;;
36817;SDS011;22761;51.542;16.450;2023-03-01T17:13:57;30.90;;;15.70;;
36817;SDS011;22761;51.542;16.450;2023-03-01T17:16:25;28.60;;;14.80;;
36817;SDS011;22761;51.542;16.450;2023-03-01T17:18:55;26.40;;;15.70;;
36817;SDS011;22761;51.542;16.450;2023-03-01T17:21:23;32.50;;;16.70;;
36817;SDS011;22761;51.542;16.450;2023-03-01T17:23:54;25.70;;;14.90;;